createdAt,value
2022-07-28T00:01:29.703Z,95912.09
2022-07-28T00:03:58.887Z,95911.28
2022-07-28T00:06:27.723Z,95909.97
2022-07-28T00:08:57.680Z,95899.06
2022-07-28T00:11:26.235Z,95904.13
2022-07-28T00:13:54.892Z,95914.75
2022-07-28T00:16:23.664Z,95895.16
2022-07-28T00:18:52.791Z,95879.84
2022-07-28T00:21:21.370Z,95908.28
2022-07-28T00:23:49.896Z,95810.22
2022-07-28T00:26:19.891Z,95871.03
2022-07-28T00:28:48.791Z,95878.47
2022-07-28T00:31:17.569Z,95916.50
2022-07-28T00:33:46.473Z,95907.56
2022-07-28T00:36:14.908Z,95900.50
2022-07-28T00:38:44.071Z,95907.88
2022-07-28T00:41:13.864Z,95901.91
2022-07-28T00:43:45.788Z,95884.97
2022-07-28T00:46:16.325Z,95900.34
2022-07-28T00:48:46.700Z,95896.91
2022-07-28T00:51:17.673Z,95892.38
2022-07-28T00:53:47.239Z,95884.00
2022-07-28T00:56:16.225Z,95884.59
2022-07-28T00:58:47.472Z,95880.56
2022-07-28T01:01:19.943Z,95879.81
2022-07-28T01:03:53.559Z,95872.53
2022-07-28T01:06:49.599Z,95871.78
2022-07-28T01:09:29.912Z,95876.78
2022-07-28T01:12:04.211Z,95876.31
2022-07-28T01:14:39.860Z,95878.53
2022-07-28T01:17:15.896Z,95882.41
2022-07-28T01:19:50.353Z,95857.75
2022-07-28T01:22:24.020Z,95880.56
2022-07-28T01:24:57.812Z,95885.06
2022-07-28T01:27:38.250Z,95882.88
2022-07-28T01:30:12.491Z,95884.75
2022-07-28T01:32:47.724Z,95864.06
2022-07-28T01:35:21.580Z,95887.03
2022-07-28T01:37:53.314Z,95883.84
2022-07-28T01:40:27.473Z,95885.53
2022-07-28T01:43:00.042Z,95882.28
2022-07-28T01:45:30.301Z,95880.69
2022-07-28T01:48:03.412Z,95886.09
2022-07-28T01:50:33.529Z,95853.28
2022-07-28T01:53:03.172Z,95881.47
2022-07-28T01:55:33.812Z,95884.97
2022-07-28T01:58:04.464Z,95831.72
2022-07-28T02:00:34.705Z,95850.84
2022-07-28T02:03:07.720Z,95863.53
2022-07-28T02:05:37.968Z,95872.16
2022-07-28T02:08:08.662Z,95823.66
2022-07-28T02:10:39.883Z,95858.13
2022-07-28T02:13:10.019Z,95857.59
2022-07-28T02:15:41.013Z,95860.66
2022-07-28T02:18:12.658Z,95859.59
2022-07-28T02:20:42.117Z,95853.69
2022-07-28T02:23:14.644Z,95858.84
2022-07-28T02:25:43.597Z,95852.91
2022-07-28T02:28:13.661Z,95849.66
2022-07-28T02:30:48.556Z,95832.03
2022-07-28T02:33:34.663Z,95780.84
2022-07-28T02:36:16.312Z,95856.00
2022-07-28T02:38:48.191Z,95854.38
2022-07-28T02:41:23.640Z,95853.03
2022-07-28T02:43:55.559Z,95854.69
2022-07-28T02:46:29.145Z,95854.69
2022-07-28T02:49:08.390Z,95853.09
2022-07-28T02:51:38.519Z,95859.59
2022-07-28T02:54:08.902Z,95753.53
2022-07-28T02:56:37.823Z,95862.84
2022-07-28T02:59:07.533Z,95870.44
2022-07-28T03:01:36.724Z,95855.00
2022-07-28T03:04:07.972Z,95852.06
2022-07-28T03:06:37.666Z,95856.94
2022-07-28T03:09:06.182Z,95857.22
2022-07-28T03:11:36.176Z,95862.13
2022-07-28T03:14:05.321Z,95861.59
2022-07-28T03:16:34.399Z,95860.75
2022-07-28T03:19:02.971Z,95862.97
2022-07-28T03:21:32.797Z,95861.88
2022-07-28T03:24:01.892Z,95866.22
2022-07-28T03:26:41.423Z,95658.50
2022-07-28T03:29:12.193Z,95865.44
2022-07-28T03:31:42.753Z,95855.25
2022-07-28T03:34:12.435Z,95870.56
2022-07-28T03:36:46.000Z,95868.16
2022-07-28T03:39:16.988Z,95870.59
2022-07-28T03:41:46.919Z,95847.69
2022-07-28T03:44:19.059Z,95867.91
2022-07-28T03:46:56.800Z,95863.06
2022-07-28T03:49:25.462Z,95864.69
2022-07-28T03:51:55.755Z,95863.06
2022-07-28T03:54:24.334Z,95841.53
2022-07-28T03:56:52.889Z,95869.56
2022-07-28T03:59:21.837Z,95868.47
2022-07-28T04:01:50.934Z,95872.28
2022-07-28T04:04:19.648Z,95869.81
2022-07-28T04:06:48.266Z,95874.41
2022-07-28T04:09:18.224Z,95877.13
2022-07-28T04:11:46.760Z,95868.47
2022-07-28T04:14:17.126Z,95870.34
2022-07-28T04:16:46.469Z,95876.50
2022-07-28T04:19:15.044Z,95873.00
2022-07-28T04:21:43.935Z,95871.63
2022-07-28T04:24:12.887Z,95880.00
2022-07-28T04:26:44.105Z,95839.84
2022-07-28T04:29:12.944Z,95868.88
2022-07-28T04:31:41.392Z,95874.22
2022-07-28T04:34:10.170Z,95861.22
2022-07-28T04:36:42.344Z,95868.50
2022-07-28T04:39:11.336Z,95870.44
2022-07-28T04:41:39.870Z,95874.22
2022-07-28T04:44:12.383Z,95877.75
2022-07-28T04:46:41.239Z,95885.31
2022-07-28T04:49:09.966Z,95881.25
2022-07-28T04:51:38.459Z,95873.91
2022-07-28T04:54:07.067Z,95876.56
2022-07-28T04:56:35.493Z,95875.16
2022-07-28T04:59:04.075Z,95878.84
2022-07-28T05:01:36.149Z,95872.28
2022-07-28T05:04:05.140Z,95868.41
2022-07-28T05:06:33.680Z,95869.75
2022-07-28T05:09:02.472Z,95874.28
2022-07-28T05:11:30.984Z,95872.03
2022-07-28T05:13:59.440Z,95877.09
2022-07-28T05:16:27.987Z,95874.63
2022-07-28T05:18:58.463Z,95880.81
2022-07-28T05:21:27.433Z,95880.47
2022-07-28T05:23:56.017Z,95884.72
2022-07-28T05:26:24.502Z,95874.41
2022-07-28T05:28:53.027Z,95823.25
2022-07-28T05:31:21.693Z,95874.88
2022-07-28T05:33:50.260Z,95869.66
2022-07-28T05:36:22.488Z,95874.81
2022-07-28T05:38:51.100Z,95873.13
2022-07-28T05:41:19.549Z,95882.59
2022-07-28T05:43:48.424Z,95878.50
2022-07-28T05:46:16.974Z,95875.50
2022-07-28T05:48:45.652Z,95870.78
2022-07-28T05:51:14.176Z,95828.66
2022-07-28T05:53:44.908Z,95868.34
2022-07-28T05:56:13.348Z,95884.75
2022-07-28T05:58:41.813Z,95878.34
2022-07-28T06:01:10.444Z,95884.25
2022-07-28T06:03:42.396Z,95887.28
2022-07-28T06:06:15.931Z,95876.78
2022-07-28T06:08:47.497Z,95887.66
2022-07-28T06:11:21.600Z,95887.97
2022-07-28T06:13:51.444Z,95892.09
2022-07-28T06:16:21.227Z,95674.78
2022-07-28T06:18:49.891Z,95860.53
2022-07-28T06:21:18.568Z,95893.06
2022-07-28T06:23:48.468Z,95899.47
2022-07-28T06:26:17.269Z,95860.16
2022-07-28T06:28:46.226Z,95896.75
2022-07-28T06:31:14.812Z,95892.16
2022-07-28T06:33:43.453Z,95861.66
2022-07-28T06:36:12.175Z,95879.75
2022-07-28T06:38:40.965Z,95888.84
2022-07-28T06:41:11.212Z,95889.09
2022-07-28T06:43:39.720Z,95892.53
2022-07-28T06:46:08.607Z,95890.09
2022-07-28T06:48:39.578Z,95887.34
2022-07-28T06:51:08.884Z,95886.53
2022-07-28T06:53:37.503Z,95891.94
2022-07-28T06:56:06.958Z,95892.44
2022-07-28T06:58:37.507Z,95889.66
2022-07-28T07:01:08.066Z,95843.44
2022-07-28T07:03:36.840Z,95893.78
2022-07-28T07:06:05.665Z,95890.56
2022-07-28T07:08:35.056Z,95894.66
2022-07-28T07:11:03.738Z,95877.28
2022-07-28T07:13:33.274Z,95882.66
2022-07-28T07:16:03.747Z,95880.94
2022-07-28T07:18:32.279Z,95864.53
2022-07-28T07:21:00.739Z,95883.44
2022-07-28T07:23:29.220Z,95881.25
2022-07-28T07:25:57.901Z,95879.03
2022-07-28T07:28:26.791Z,95877.88
2022-07-28T07:30:55.247Z,95886.38
2022-07-28T07:33:25.141Z,95883.47
2022-07-28T07:35:53.786Z,95879.75
2022-07-28T07:38:25.071Z,95874.81
2022-07-28T07:40:57.427Z,95882.38
2022-07-28T07:43:25.952Z,95873.06
2022-07-28T07:45:55.152Z,95862.56
2022-07-28T07:48:25.550Z,95872.31
2022-07-28T07:50:54.518Z,95873.44
2022-07-28T07:53:24.383Z,95855.72
2022-07-28T07:55:53.683Z,95873.75
2022-07-28T07:58:22.438Z,95846.47
2022-07-28T08:00:53.460Z,95861.00
2022-07-28T08:03:22.660Z,95858.78
2022-07-28T08:05:57.478Z,95865.25
2022-07-28T08:08:26.074Z,95866.44
2022-07-28T08:10:54.529Z,95854.16
2022-07-28T08:13:23.432Z,95862.25
2022-07-28T08:15:52.431Z,95869.16
2022-07-28T08:18:21.490Z,95861.63
2022-07-28T08:20:51.622Z,95869.47
2022-07-28T08:23:25.809Z,95820.97
2022-07-28T08:25:54.675Z,95857.81
2022-07-28T08:28:23.275Z,95857.63
2022-07-28T08:30:52.732Z,95847.06
2022-07-28T08:33:22.108Z,95828.41
2022-07-28T08:35:52.613Z,95853.97
2022-07-28T08:38:21.693Z,95863.63
2022-07-28T08:40:51.671Z,95872.69
2022-07-28T08:43:30.837Z,95861.59
2022-07-28T08:46:01.328Z,95856.31
2022-07-28T08:48:32.791Z,95850.47
2022-07-28T08:51:05.776Z,95853.09
2022-07-28T08:53:37.157Z,95849.47
2022-07-28T08:56:07.999Z,95858.47
2022-07-28T08:58:38.227Z,95861.38
2022-07-28T09:01:11.185Z,95824.00
2022-07-28T09:03:40.492Z,95846.63
2022-07-28T09:06:11.209Z,95853.72
2022-07-28T09:08:40.073Z,95851.69
2022-07-28T09:11:12.229Z,95841.97
2022-07-28T09:13:40.880Z,95844.91
2022-07-28T09:16:11.326Z,95845.81
2022-07-28T09:18:40.727Z,95850.09
2022-07-28T09:21:14.199Z,95841.81
2022-07-28T09:23:46.615Z,95846.16
2022-07-28T09:26:15.193Z,95849.06
2022-07-28T09:28:49.690Z,95849.09
2022-07-28T09:31:19.700Z,95841.13
2022-07-28T09:34:02.274Z,95849.03
2022-07-28T09:36:39.877Z,95851.16
2022-07-28T09:39:08.475Z,95842.50
2022-07-28T09:41:49.114Z,95844.47
2022-07-28T09:44:20.847Z,95841.41
2022-07-28T09:46:49.394Z,95837.78
2022-07-28T09:49:18.692Z,95816.41
2022-07-28T09:52:03.578Z,95838.09
2022-07-28T09:54:33.577Z,95842.44
2022-07-28T09:57:05.179Z,95837.97
2022-07-28T09:59:51.998Z,95829.00
2022-07-28T10:02:27.969Z,95824.81
2022-07-28T10:05:00.742Z,95830.94
2022-07-28T10:07:31.395Z,95826.91
2022-07-28T10:10:02.153Z,95828.38
2022-07-28T10:12:32.776Z,95832.06
2022-07-28T10:15:34.675Z,95823.06
2022-07-28T10:18:04.126Z,95818.41
2022-07-28T10:20:34.349Z,95814.19
2022-07-28T10:23:06.177Z,95815.78
2022-07-28T10:25:37.470Z,95805.97
2022-07-28T10:28:07.591Z,95810.63
2022-07-28T10:30:41.354Z,95809.63
2022-07-28T10:33:17.334Z,95789.72
2022-07-28T10:35:54.431Z,95807.31
2022-07-28T10:38:29.849Z,95808.25
2022-07-28T10:41:00.194Z,95793.94
2022-07-28T10:43:31.156Z,95798.09
2022-07-28T10:46:06.048Z,95791.78
2022-07-28T10:48:37.216Z,95793.94
2022-07-28T10:51:06.520Z,95791.06
2022-07-28T10:53:45.177Z,95785.94
2022-07-28T10:56:19.842Z,95768.31
2022-07-28T10:58:56.957Z,95774.19
2022-07-28T11:01:53.396Z,95793.22
2022-07-28T11:04:53.471Z,95795.47
2022-07-28T11:07:22.533Z,95797.09
2022-07-28T11:09:53.613Z,95790.97
2022-07-28T11:12:49.901Z,95800.56
2022-07-28T11:15:33.349Z,95778.81
2022-07-28T11:18:04.044Z,95777.31
2022-07-28T11:21:10.463Z,95775.75
2022-07-28T11:23:46.840Z,95776.22
2022-07-28T11:26:38.189Z,95764.66
2022-07-28T11:29:22.282Z,95775.34
2022-07-28T11:32:02.059Z,95767.84
2022-07-28T11:35:08.780Z,95761.16
2022-07-28T11:38:11.516Z,95766.63
2022-07-28T11:40:44.851Z,95766.31
2022-07-28T11:43:45.658Z,95757.88
2022-07-28T11:46:25.867Z,95759.72
2022-07-28T11:49:22.205Z,95757.44
2022-07-28T11:52:10.292Z,95745.69
2022-07-28T11:54:40.368Z,95749.53
2022-07-28T11:57:11.847Z,95751.34
2022-07-28T11:59:53.502Z,95737.63
2022-07-28T12:02:24.530Z,95747.91
2022-07-28T12:05:06.087Z,95741.03
2022-07-28T12:07:37.602Z,95748.13
2022-07-28T12:13:13.943Z,95741.94
2022-07-28T12:15:52.306Z,95704.66
2022-07-28T12:18:20.839Z,95740.56
2022-07-28T12:20:55.601Z,95740.34
2022-07-28T12:23:39.011Z,95697.09
2022-07-28T12:26:14.391Z,95728.47
2022-07-28T12:28:51.625Z,95729.47
2022-07-28T12:31:26.041Z,95732.69
2022-07-28T12:33:54.676Z,95723.50
2022-07-28T12:36:24.397Z,95716.81
2022-07-28T12:38:53.741Z,95718.41
2022-07-28T12:41:23.166Z,95730.50
2022-07-28T12:43:52.557Z,95722.19
2022-07-28T12:46:28.765Z,95704.38
2022-07-28T12:48:58.426Z,95715.16
2022-07-28T12:51:35.634Z,95722.28
2022-07-28T12:54:05.157Z,95718.66
2022-07-28T12:56:46.376Z,95719.13
2022-07-28T12:59:15.590Z,95719.50
2022-07-28T13:01:53.384Z,95709.63
2022-07-28T13:04:40.759Z,95716.97
2022-07-28T13:07:11.949Z,95712.47
2022-07-28T13:09:53.226Z,95689.03
2022-07-28T13:12:31.124Z,95698.50
2022-07-28T13:15:01.117Z,95707.63
2022-07-28T13:17:49.247Z,95710.25
2022-07-28T13:20:18.305Z,95699.38
2022-07-28T13:22:47.158Z,95694.59
2022-07-28T13:25:16.217Z,95698.97
2022-07-28T13:27:44.969Z,95695.75
2022-07-28T13:30:14.033Z,95692.41
2022-07-28T13:32:43.999Z,95637.47
2022-07-28T13:35:15.204Z,95662.56
2022-07-28T13:37:44.256Z,95671.41
2022-07-28T13:40:13.783Z,95674.47
2022-07-28T13:42:53.449Z,95677.56
2022-07-28T13:45:29.993Z,95666.78
2022-07-28T13:48:00.674Z,95670.28
2022-07-28T13:50:29.555Z,95656.00
2022-07-28T13:52:59.907Z,95667.63
2022-07-28T13:55:29.977Z,95669.69
2022-07-28T13:57:58.480Z,95659.34
2022-07-28T14:00:27.969Z,95667.63
2022-07-28T14:02:59.808Z,95662.44
2022-07-28T14:05:32.114Z,95659.66
2022-07-28T14:08:00.939Z,95660.66
2022-07-28T14:10:29.671Z,95657.59
2022-07-28T14:12:58.217Z,95653.72
2022-07-28T14:15:27.098Z,95651.72
2022-07-28T14:17:55.973Z,95654.59
2022-07-28T14:20:25.866Z,95646.91
2022-07-28T14:22:54.359Z,95654.63
2022-07-28T14:25:23.253Z,95652.63
2022-07-28T14:27:53.222Z,95645.91
2022-07-28T14:30:22.672Z,95648.53
2022-07-28T14:32:51.417Z,95643.94
2022-07-28T14:35:20.539Z,95643.28
2022-07-28T14:40:40.321Z,95606.03
2022-07-28T14:43:09.522Z,95654.03
2022-07-28T14:45:51.242Z,95639.84
2022-07-28T14:48:26.446Z,95638.72
2022-07-28T14:50:55.675Z,95632.91
2022-07-28T14:53:27.926Z,95632.66
2022-07-28T14:55:57.381Z,95631.16
2022-07-28T14:58:26.033Z,95633.25
2022-07-28T15:00:55.141Z,95625.78
2022-07-28T15:03:23.930Z,95627.84
2022-07-28T15:05:52.377Z,95627.53
2022-07-28T15:08:20.916Z,95629.53
2022-07-28T15:10:55.814Z,95631.91
2022-07-28T15:13:24.318Z,95624.38
2022-07-28T15:15:52.992Z,95622.78
2022-07-28T15:18:21.959Z,95626.78
2022-07-28T15:20:54.913Z,95630.22
2022-07-28T15:23:23.783Z,95617.41
2022-07-28T15:25:53.326Z,95616.94
2022-07-28T15:28:24.289Z,95619.47
2022-07-28T15:30:53.200Z,95624.38
2022-07-28T15:33:22.144Z,95619.50
2022-07-28T15:35:58.532Z,95625.72
2022-07-28T15:38:29.216Z,95627.22
2022-07-28T15:40:59.346Z,95616.75
2022-07-28T15:43:30.473Z,95623.41
2022-07-28T15:45:59.216Z,95621.66
2022-07-28T15:48:27.834Z,95610.09
2022-07-28T15:50:57.313Z,95622.22
2022-07-28T15:53:25.721Z,95614.88
2022-07-28T15:55:54.844Z,95608.84
2022-07-28T15:58:26.501Z,95595.50
2022-07-28T16:00:56.625Z,95612.53
2022-07-28T16:03:29.922Z,95611.47
2022-07-28T16:05:58.987Z,95573.78
2022-07-28T16:08:28.237Z,95522.59
2022-07-28T16:10:57.079Z,95614.03
2022-07-28T16:13:33.405Z,95612.31
2022-07-28T16:16:08.799Z,95605.94
2022-07-28T16:18:38.725Z,95605.69
2022-07-28T16:21:08.753Z,95605.56
2022-07-28T16:23:37.714Z,95607.81
2022-07-28T16:26:08.265Z,95609.38
2022-07-28T16:28:44.296Z,95584.91
2022-07-28T16:31:17.933Z,95544.50
2022-07-28T16:33:55.397Z,95600.03
2022-07-28T16:36:25.376Z,95586.16
2022-07-28T16:38:54.442Z,95590.03
2022-07-28T16:41:23.750Z,95602.28
2022-07-28T16:44:12.972Z,95606.84
2022-07-28T16:46:43.316Z,95600.47
2022-07-28T16:49:12.065Z,95597.16
2022-07-28T16:51:40.623Z,95578.53
2022-07-28T16:54:09.443Z,95593.63
2022-07-28T16:56:38.489Z,95606.13
2022-07-28T16:59:08.319Z,95598.91
2022-07-28T17:01:39.802Z,95591.34
2022-07-28T17:04:13.525Z,95607.03
2022-07-28T17:06:44.123Z,95601.75
2022-07-28T17:09:14.716Z,95573.63
2022-07-28T17:11:44.826Z,95606.06
2022-07-28T17:14:14.893Z,95603.59
2022-07-28T17:16:45.094Z,95598.81
2022-07-28T17:19:16.366Z,95602.28
2022-07-28T17:21:45.182Z,95607.72
2022-07-28T17:24:14.336Z,95600.13
2022-07-28T17:29:34.764Z,95606.16
2022-07-28T17:32:05.184Z,95609.63
2022-07-28T17:34:37.327Z,95605.53
2022-07-28T17:37:07.763Z,95605.81
2022-07-28T17:39:37.929Z,95610.41
2022-07-28T17:42:07.995Z,95607.22
2022-07-28T17:44:38.193Z,95613.44
2022-07-28T17:47:08.123Z,95614.88
2022-07-28T17:49:45.189Z,95626.47
2022-07-28T17:52:15.666Z,95610.63
2022-07-28T17:55:02.782Z,95602.19
2022-07-28T17:57:37.655Z,95623.28
2022-07-28T18:00:09.400Z,95602.72
2022-07-28T18:02:38.610Z,95615.38
2022-07-28T18:05:10.749Z,95613.56
2022-07-28T18:07:51.278Z,95618.06
2022-07-28T18:10:25.053Z,95596.84
2022-07-28T18:12:56.346Z,95582.84
2022-07-28T18:15:25.155Z,95622.25
2022-07-28T18:17:56.038Z,95569.31
2022-07-28T18:20:26.425Z,95618.69
2022-07-28T18:22:55.103Z,95603.88
2022-07-28T18:25:23.567Z,95619.44
2022-07-28T18:27:52.149Z,95621.84
2022-07-28T18:30:20.957Z,95629.06
2022-07-28T18:32:49.602Z,95608.47
2022-07-28T18:35:19.248Z,95633.84
2022-07-28T18:37:49.852Z,95636.00
2022-07-28T18:40:21.629Z,95625.97
2022-07-28T18:42:50.515Z,95587.94
2022-07-28T18:45:19.680Z,95630.63
2022-07-28T18:47:48.337Z,95630.06
2022-07-28T18:50:28.002Z,95623.66
2022-07-28T18:53:01.789Z,95630.50
2022-07-28T18:55:31.097Z,95642.94
2022-07-28T18:57:59.628Z,95644.00
2022-07-28T19:00:28.166Z,95652.09
2022-07-28T19:02:57.166Z,95656.63
2022-07-28T19:05:26.162Z,95661.22
2022-07-28T19:07:54.733Z,95466.19
2022-07-28T19:10:24.894Z,95669.03
2022-07-28T19:12:54.415Z,95664.56
2022-07-28T19:15:23.163Z,95663.97
2022-07-28T19:18:10.672Z,95667.72
2022-07-28T19:20:41.819Z,95681.50
2022-07-28T19:23:11.915Z,95686.38
2022-07-28T19:25:44.354Z,95680.66
2022-07-28T19:28:14.031Z,95687.47
2022-07-28T19:30:45.754Z,95682.25
2022-07-28T19:33:19.332Z,95671.59
2022-07-28T19:35:50.114Z,95700.97
2022-07-28T19:38:20.053Z,95700.81
2022-07-28T19:40:51.755Z,95695.09
2022-07-28T19:43:21.555Z,95696.13
2022-07-28T19:45:52.512Z,95701.59
2022-07-28T19:48:22.591Z,95711.47
2022-07-28T19:50:53.131Z,95695.94
2022-07-28T19:53:25.104Z,95703.19
2022-07-28T19:56:03.654Z,95703.69
2022-07-28T19:58:37.232Z,95701.16
2022-07-28T20:01:07.946Z,95702.94
2022-07-28T20:04:03.042Z,95704.25
2022-07-28T20:06:29.214Z,95706.72
2022-07-28T20:08:58.904Z,95707.38
2022-07-28T20:11:30.921Z,95711.88
2022-07-28T20:14:00.856Z,95712.53
2022-07-28T20:16:31.560Z,95715.47
2022-07-28T20:19:02.481Z,95719.47
2022-07-28T20:21:39.384Z,95686.78
2022-07-28T20:24:10.540Z,95696.91
2022-07-28T20:26:41.797Z,95718.41
2022-07-28T20:29:11.999Z,95564.34
2022-07-28T20:31:41.815Z,95721.34
2022-07-28T20:34:13.767Z,95720.72
2022-07-28T20:36:44.228Z,95722.00
2022-07-28T20:39:42.167Z,95426.81
2022-07-28T20:42:08.386Z,95710.97
2022-07-28T20:44:38.939Z,95720.75
2022-07-28T20:47:08.948Z,95718.34
2022-07-28T20:49:39.786Z,95707.75
2022-07-28T20:52:09.544Z,95711.13
2022-07-28T20:54:40.066Z,95705.19
2022-07-28T20:57:11.730Z,95701.50
2022-07-28T20:59:40.906Z,95708.25
2022-07-28T21:02:09.971Z,95710.31
2022-07-28T21:04:38.458Z,95679.19
2022-07-28T21:07:08.037Z,95716.72
2022-07-28T21:09:37.534Z,95723.66
2022-07-28T21:12:07.553Z,95720.09
2022-07-28T21:14:37.486Z,95725.72
2022-07-28T21:17:06.068Z,95727.50
2022-07-28T21:19:34.660Z,95727.81
2022-07-28T21:22:03.501Z,95737.47
2022-07-28T21:24:32.053Z,95746.75
2022-07-28T21:27:00.902Z,95665.56
2022-07-28T21:29:28.287Z,95751.56
2022-07-28T21:32:05.477Z,95755.09
2022-07-28T21:34:35.565Z,95760.09
2022-07-28T21:37:04.836Z,95754.13
2022-07-28T21:39:34.121Z,95763.47
2022-07-28T21:42:07.553Z,95742.09
2022-07-28T21:44:36.871Z,95766.31
2022-07-28T21:47:07.262Z,95765.22
2022-07-28T21:49:35.713Z,95763.59
2022-07-28T21:52:04.268Z,95759.28
2022-07-28T21:54:32.878Z,95760.72
2022-07-28T21:57:01.696Z,95764.22
2022-07-28T21:59:30.160Z,95766.97
2022-07-28T22:01:58.751Z,95773.22
2022-07-28T22:04:29.129Z,95745.28
2022-07-28T22:06:57.598Z,95762.31
2022-07-28T22:09:26.110Z,95740.16
2022-07-28T22:11:54.630Z,95762.78
2022-07-28T22:14:25.630Z,95762.78
2022-07-28T22:16:54.559Z,95764.75
2022-07-28T22:19:23.067Z,95752.22
2022-07-28T22:21:54.180Z,95758.47
2022-07-28T22:24:22.968Z,95759.91
2022-07-28T22:26:52.169Z,95759.09
2022-07-28T22:29:20.650Z,95738.56
2022-07-28T22:31:49.684Z,95773.22
2022-07-28T22:34:18.315Z,95764.75
2022-07-28T22:36:46.947Z,95771.78
2022-07-28T22:39:16.873Z,95774.19
2022-07-28T22:41:46.927Z,95783.50
2022-07-28T22:44:15.840Z,95767.94
2022-07-28T22:46:44.924Z,95760.56
2022-07-28T22:49:13.509Z,95777.22
2022-07-28T22:51:46.452Z,95779.16
2022-07-28T22:54:18.480Z,95777.56
2022-07-28T22:56:47.914Z,95779.47
2022-07-28T22:59:17.729Z,95669.63
2022-07-28T23:01:46.465Z,95771.13
2022-07-28T23:04:15.792Z,95756.53
2022-07-28T23:06:45.150Z,95766.66
2022-07-28T23:09:13.662Z,95765.66
2022-07-28T23:11:55.552Z,95744.09
2022-07-28T23:14:24.902Z,95765.97
2022-07-28T23:16:53.483Z,95758.44
2022-07-28T23:19:23.426Z,95739.88
2022-07-28T23:21:52.252Z,95766.44
2022-07-28T23:24:21.134Z,95764.34
2022-07-28T23:26:51.106Z,95778.44
2022-07-28T23:29:19.513Z,95761.56
2022-07-28T23:31:49.716Z,95760.59
2022-07-28T23:34:19.110Z,95739.84
2022-07-28T23:36:48.273Z,95736.63
2022-07-28T23:39:17.030Z,95771.63
2022-07-28T23:41:45.830Z,95758.63
2022-07-28T23:44:16.256Z,95754.31
2022-07-28T23:46:45.403Z,95745.66
2022-07-28T23:49:15.355Z,95741.31
2022-07-28T23:51:47.571Z,95731.53
2022-07-28T23:54:17.788Z,95732.81
2022-07-28T23:56:47.070Z,95737.25
2022-07-28T23:59:16.959Z,95733.06
